Time;durP1;ratioP1;P1;durP2;ratioP2;P2;SDS_P1;SDS_P2;PMS_P1;PMS_P2;Temp;Humidity;BMP_temperature;BMP_pressure;BME280_temperature;BME280_humidity;BME280_pressure;Samples;Min_cycle;Max_cycle;Signal;HPM_P1;HPM_P2
2023/05/16 00:01:23;;;;;;;5.70;5.10;;;;;;;;;;4965149;28;20519;-65
2023/05/16 00:04:31;;;;;;;5.47;4.78;;;;;;;;;;4962851;28;20034;-66
2023/05/16 00:07:46;;;;;;;5.40;4.72;;;;;;;;;;4951234;28;20105;-61
2023/05/16 00:11:05;;;;;;;5.32;4.82;;;;;;;;;;4952016;28;20511;-61
2023/05/16 00:14:18;;;;;;;5.88;5.28;;;;;;;;;;4972736;28;20030;-66
2023/05/16 00:17:36;;;;;;;5.20;4.40;;;;;;;;;;4958642;28;20117;-63
2023/05/16 00:21:03;;;;;;;5.15;4.65;;;;;;;;;;4983982;28;20065;-66
2023/05/16 00:27:17;;;;;;;6.13;5.10;;;;;;;;;;4988016;28;20038;-67
2023/05/16 00:33:48;;;;;;;6.47;5.05;;;;;;;;;;4973369;28;20038;-65
2023/05/16 00:37:14;;;;;;;6.03;5.35;;;;;;;;;;4991170;28;20057;-65
2023/05/16 00:40:33;;;;;;;5.53;4.95;;;;;;;;;;4985345;28;20100;-65
2023/05/16 00:47:30;;;;;;;6.05;4.93;;;;;;;;;;4981896;28;20139;-66
2023/05/16 00:50:32;;;;;;;6.03;4.88;;;;;;;;;;4971584;28;20133;-59
2023/05/16 01:00:13;;;;;;;6.07;4.82;;;;;;;;;;4905217;28;20109;-66
2023/05/16 01:03:27;;;;;;;5.63;4.95;;;;;;;;;;4983149;28;20116;-65
2023/05/16 01:06:40;;;;;;;5.65;5.00;;;;;;;;;;4975633;28;20030;-68
2023/05/16 01:09:57;;;;;;;6.28;5.05;;;;;;;;;;4969704;28;20448;-66
2023/05/16 01:13:07;;;;;;;5.15;4.53;;;;;;;;;;4983313;28;20727;-66
2023/05/16 01:16:40;;;;;;;5.45;4.85;;;;;;;;;;5001825;28;20491;-64
2023/05/16 01:19:49;;;;;;;5.18;4.47;;;;;;;;;;4986446;28;20634;-66
2023/05/16 01:23:14;;;;;;;5.00;4.50;;;;;;;;;;4991218;28;20064;-65
2023/05/16 01:36:01;;;;;;;5.53;4.60;;;;;;;;;;4983486;28;20108;-66
2023/05/16 01:39:32;;;;;;;5.65;4.75;;;;;;;;;;4979563;28;20054;-66
2023/05/16 01:46:08;;;;;;;5.77;4.83;;;;;;;;;;4959613;28;20057;-66
2023/05/16 01:49:25;;;;;;;5.05;4.22;;;;;;;;;;4982617;28;20053;-60
2023/05/16 01:52:12;;;;;;;;;;;;;;;;;;4964822;28;20070;-65
2023/05/16 01:58:09;;;;;;;5.75;4.97;;;;;;;;;;4962398;28;20125;-66
2023/05/16 02:07:47;;;;;;;5.00;4.50;;;;;;;;;;4944066;28;20108;-65
2023/05/16 02:10:20;;;;;;;5.03;4.53;;;;;;;;;;4936490;28;20095;-66
2023/05/16 02:16:22;;;;;;;5.53;5.00;;;;;;;;;;4949845;28;19924;-65
2023/05/16 02:19:04;;;;;;;4.88;4.38;;;;;;;;;;4969373;28;20416;-65
2023/05/16 02:22:11;;;;;;;5.72;4.47;;;;;;;;;;4957452;28;20857;-58
2023/05/16 02:28:33;;;;;;;5.13;4.53;;;;;;;;;;4981498;28;20455;-67
2023/05/16 02:31:48;;;;;;;4.97;4.30;;;;;;;;;;4938484;28;20470;-64
2023/05/16 02:38:44;;;;;;;4.80;4.30;;;;;;;;;;4980097;28;20213;-65
2023/05/16 02:45:20;;;;;;;4.85;4.22;;;;;;;;;;4991354;28;20538;-65
2023/05/16 02:55:13;;;;;;;5.65;4.47;;;;;;;;;;4980342;28;20050;-65
2023/05/16 03:01:45;;;;;;;5.22;4.13;;;;;;;;;;4977877;28;20755;-65
2023/05/16 03:05:10;;;;;;;4.97;4.45;;;;;;;;;;4946374;28;20470;-66
2023/05/16 03:08:27;;;;;;;5.35;4.50;;;;;;;;;;4960571;28;20099;-66
2023/05/16 03:11:42;;;;;;;4.70;4.13;;;;;;;;;;4947542;28;20051;-66
2023/05/16 03:14:58;;;;;;;5.22;4.47;;;;;;;;;;4926779;28;20035;-67
2023/05/16 03:18:13;;;;;;;5.03;4.20;;;;;;;;;;4976236;28;20434;-65
2023/05/16 03:21:40;;;;;;;4.80;4.25;;;;;;;;;;4968471;28;20312;-66
2023/05/16 03:24:30;;;;;;;5.03;4.40;;;;;;;;;;4994941;28;20581;-66
2023/05/16 03:27:45;;;;;;;5.05;4.10;;;;;;;;;;4969856;28;20045;-65
2023/05/16 03:31:11;;;;;;;5.03;4.05;;;;;;;;;;4971758;28;20026;-66
2023/05/16 03:34:23;;;;;;;4.88;4.18;;;;;;;;;;4968159;28;20041;-65
2023/05/16 03:37:42;;;;;;;4.32;3.92;;;;;;;;;;4986075;28;20068;-65
2023/05/16 03:40:58;;;;;;;4.97;4.13;;;;;;;;;;4954390;28;20038;-66
2023/05/16 03:43:47;;;;;;;4.60;4.10;;;;;;;;;;4997393;28;20495;-65
2023/05/16 03:46:45;;;;;;;5.88;4.05;;;;;;;;;;4931499;28;20558;-69
2023/05/16 03:49:35;;;;;;;4.57;4.07;;;;;;;;;;4951303;28;20043;-63
2023/05/16 03:52:12;;;;;;;5.57;4.20;;;;;;;;;;4945806;28;20051;-66
2023/05/16 03:55:06;;;;;;;4.95;4.18;;;;;;;;;;4954900;28;20109;-64
2023/05/16 03:57:48;;;;;;;4.20;3.80;;;;;;;;;;4954935;28;20174;-65
2023/05/16 04:00:45;;;;;;;4.22;3.83;;;;;;;;;;4952713;28;20046;-63
2023/05/16 04:03:32;;;;;;;5.03;3.97;;;;;;;;;;4955947;28;20423;-63
2023/05/16 04:06:33;;;;;;;4.57;3.80;;;;;;;;;;4962455;28;20046;-63
2023/05/16 04:09:35;;;;;;;5.55;3.78;;;;;;;;;;4950339;28;20045;-61
2023/05/16 04:12:25;;;;;;;4.65;3.92;;;;;;;;;;4943730;28;20434;-61
2023/05/16 04:15:12;;;;;;;4.85;4.10;;;;;;;;;;4952048;28;20036;-63
2023/05/16 04:17:52;;;;;;;5.57;4.28;;;;;;;;;;4961719;28;20559;-64
2023/05/16 04:20:41;;;;;;;4.70;4.10;;;;;;;;;;4949412;28;20120;-64
2023/05/16 04:23:41;;;;;;;5.30;3.70;;;;;;;;;;4952162;28;20050;-63
2023/05/16 04:26:31;;;;;;;5.43;4.20;;;;;;;;;;4977711;28;20022;-64
2023/05/16 04:29:22;;;;;;;4.57;4.07;;;;;;;;;;4967522;28;20520;-64
2023/05/16 04:32:03;;;;;;;4.15;3.53;;;;;;;;;;4948908;28;20049;-66
2023/05/16 04:35:10;;;;;;;4.65;4.00;;;;;;;;;;4952514;28;20039;-61
2023/05/16 04:37:57;;;;;;;4.80;4.00;;;;;;;;;;4958806;28;20046;-64
2023/05/16 04:40:45;;;;;;;4.78;3.92;;;;;;;;;;4950416;28;20051;-64
2023/05/16 04:43:43;;;;;;;4.20;3.80;;;;;;;;;;4963442;28;20037;-62
2023/05/16 04:46:32;;;;;;;4.63;3.92;;;;;;;;;;4962720;28;20518;-64
2023/05/16 04:49:21;;;;;;;5.00;3.75;;;;;;;;;;4958263;28;20069;-64
2023/05/16 04:52:35;;;;;;;4.90;3.80;;;;;;;;;;4956320;28;20035;-66
2023/05/16 04:55:25;;;;;;;5.28;4.25;;;;;;;;;;4977121;28;20512;-65
2023/05/16 04:58:11;;;;;;;4.47;3.90;;;;;;;;;;4963819;28;20041;-64
2023/05/16 05:00:59;;;;;;;5.25;3.97;;;;;;;;;;4941179;28;20154;-66
2023/05/16 05:03:49;;;;;;;4.95;4.07;;;;;;;;;;4970969;28;20050;-63
2023/05/16 05:06:21;;;;;;;;;;;;;;;;;;4971751;28;20561;-62
2023/05/16 05:09:16;;;;;;;4.30;3.90;;;;;;;;;;4977892;28;20320;-63
2023/05/16 05:12:05;;;;;;;4.82;3.70;;;;;;;;;;4961312;28;20297;-65
2023/05/16 05:14:51;;;;;;;4.50;3.97;;;;;;;;;;4978325;28;20523;-67
2023/05/16 05:17:41;;;;;;;4.53;4.03;;;;;;;;;;4979618;28;20042;-73
2023/05/16 05:20:30;;;;;;;4.20;3.75;;;;;;;;;;4988242;28;20482;-71
2023/05/16 05:23:29;;;;;;;6.18;3.72;;;;;;;;;;4987867;28;20463;-59
2023/05/16 05:26:43;;;;;;;5.20;3.90;;;;;;;;;;4972659;28;20038;-67
2023/05/16 05:29:31;;;;;;;5.47;4.05;;;;;;;;;;4966648;28;20484;-72
2023/05/16 05:32:19;;;;;;;5.38;3.70;;;;;;;;;;4969371;28;20041;-72
2023/05/16 05:34:59;;;;;;;8.15;4.13;;;;;;;;;;4943995;28;20133;-73
2023/05/16 05:37:48;;;;;;;5.80;4.22;;;;;;;;;;4976220;28;20041;-63
2023/05/16 05:40:51;;;;;;;5.78;4.00;;;;;;;;;;4981206;28;20121;-63
2023/05/16 05:44:11;;;;;;;6.05;3.78;;;;;;;;;;4989216;28;20034;-58
2023/05/16 05:47:22;;;;;;;4.45;3.95;;;;;;;;;;4957264;28;20438;-66
2023/05/16 05:50:05;;;;;;;5.82;4.28;;;;;;;;;;4970726;28;20160;-67
2023/05/16 05:52:45;;;;;;;5.20;3.85;;;;;;;;;;4970659;28;20034;-60
2023/05/16 05:55:42;;;;;;;5.47;4.00;;;;;;;;;;4964445;28;20069;-66
2023/05/16 05:58:29;;;;;;;4.68;4.18;;;;;;;;;;4944459;28;22996;-67
2023/05/16 06:01:25;;;;;;;5.78;4.03;;;;;;;;;;4945047;28;20085;-66
2023/05/16 06:04:35;;;;;;;5.10;3.80;;;;;;;;;;4975739;28;20066;-68
2023/05/16 06:07:24;;;;;;;4.13;3.55;;;;;;;;;;4962232;28;20045;-65
2023/05/16 06:10:10;;;;;;;4.18;3.70;;;;;;;;;;4970783;28;20049;-67
2023/05/16 06:16:26;;;;;;;5.65;3.95;;;;;;;;;;4921573;28;20041;-66
2023/05/16 06:19:41;;;;;;;4.68;3.70;;;;;;;;;;4978061;28;20058;-60
2023/05/16 06:22:30;;;;;;;7.75;3.92;;;;;;;;;;4988827;28;20386;-69
2023/05/16 06:25:27;;;;;;;5.20;3.85;;;;;;;;;;4951674;28;20609;-67
2023/05/16 06:28:43;;;;;;;7.35;4.20;;;;;;;;;;4966981;28;20048;-68
2023/05/16 06:32:00;;;;;;;5.10;3.72;;;;;;;;;;4997984;28;20065;-67
2023/05/16 06:35:15;;;;;;;5.60;3.63;;;;;;;;;;4928559;28;20132;-69
2023/05/16 06:41:47;;;;;;;4.78;3.80;;;;;;;;;;4997748;28;20026;-67
2023/05/16 06:48:19;;;;;;;6.55;4.10;;;;;;;;;;4993817;28;20049;-68
2023/05/16 06:51:43;;;;;;;7.45;4.20;;;;;;;;;;4997885;28;20096;-69
2023/05/16 06:55:01;;;;;;;6.20;3.75;;;;;;;;;;4978317;28;20073;-69
2023/05/16 06:57:59;;;;;;;6.18;3.83;;;;;;;;;;4945862;28;20439;-68
2023/05/16 07:00:37;;;;;;;5.95;4.10;;;;;;;;;;4946226;28;20070;-69
2023/05/16 07:03:44;;;;;;;5.47;3.95;;;;;;;;;;4962237;28;20529;-68
2023/05/16 07:06:57;;;;;;;4.53;3.80;;;;;;;;;;4966319;28;20049;-68
2023/05/16 07:09:58;;;;;;;5.95;3.92;;;;;;;;;;4971552;28;20121;-60
2023/05/16 07:12:45;;;;;;;4.20;3.58;;;;;;;;;;4985446;28;20038;-70
2023/05/16 07:18:22;;;;;;;4.75;3.97;;;;;;;;;;4954217;28;20034;-70
2023/05/16 07:21:38;;;;;;;4.63;4.10;;;;;;;;;;4943159;28;20058;-69
2023/05/16 07:24:33;;;;;;;6.35;4.10;;;;;;;;;;4969061;28;20610;-65
2023/05/16 07:27:56;;;;;;;4.95;3.90;;;;;;;;;;4992671;28;20042;-68
2023/05/16 07:31:00;;;;;;;5.28;3.90;;;;;;;;;;4957911;28;20038;-69
2023/05/16 07:34:13;;;;;;;5.18;4.13;;;;;;;;;;4957068;28;20050;-69
2023/05/16 07:36:45;;;;;;;4.70;4.18;;;;;;;;;;4952323;28;20557;-67
2023/05/16 07:39:32;;;;;;;4.68;3.92;;;;;;;;;;4969483;28;20089;-69
2023/05/16 07:42:20;;;;;;;5.30;4.10;;;;;;;;;;4977337;28;20132;-68
2023/05/16 07:45:08;;;;;;;4.88;4.10;;;;;;;;;;4951489;28;20074;-69
2023/05/16 07:48:34;;;;;;;5.50;4.03;;;;;;;;;;4940315;28;20046;-69
2023/05/16 07:51:23;;;;;;;4.55;4.00;;;;;;;;;;4939764;28;20879;-69
2023/05/16 07:54:22;;;;;;;4.45;3.70;;;;;;;;;;4952215;28;20035;-67
2023/05/16 07:57:21;;;;;;;5.95;3.97;;;;;;;;;;4945473;28;20055;-69
2023/05/16 08:06:40;;;;;;;4.40;4.00;;;;;;;;;;4951529;28;20573;-59
2023/05/16 08:09:44;;;;;;;5.97;3.83;;;;;;;;;;4963585;28;20025;-70
2023/05/16 08:13:00;;;;;;;5.15;3.85;;;;;;;;;;4964876;28;20035;-59
2023/05/16 08:16:20;;;;;;;4.70;3.95;;;;;;;;;;4937621;28;20027;-59
2023/05/16 08:19:43;;;;;;;4.82;4.05;;;;;;;;;;4962407;28;20054;-69
2023/05/16 08:23:00;;;;;;;5.07;3.97;;;;;;;;;;4884389;28;20453;-69
2023/05/16 08:26:15;;;;;;;4.93;4.13;;;;;;;;;;4949304;28;20034;-69
2023/05/16 08:35:18;;;;;;;5.25;4.18;;;;;;;;;;4964424;28;20443;-69
2023/05/16 08:38:15;;;;;;;4.90;4.10;;;;;;;;;;4947339;28;20027;-69
2023/05/16 08:41:33;;;;;;;5.57;4.03;;;;;;;;;;4948680;28;20042;-69
2023/05/16 08:44:47;;;;;;;4.05;3.50;;;;;;;;;;4950609;28;20063;-69
2023/05/16 08:48:14;;;;;;;5.32;4.47;;;;;;;;;;4929886;28;20133;-69
2023/05/16 08:51:40;;;;;;;5.40;3.95;;;;;;;;;;4929292;28;20118;-69
2023/05/16 09:13:36;;;;;;;4.82;4.30;;;;;;;;;;5048483;27;1302169;-65
2023/05/16 09:16:17;;;;;;;4.43;4.03;;;;;;;;;;5041433;28;20437;-68
2023/05/16 09:18:43;;;;;;;5.05;4.55;;;;;;;;;;5031708;28;20437;-67
2023/05/16 09:21:08;;;;;;;5.28;4.43;;;;;;;;;;5019337;28;20059;-59
2023/05/16 09:23:34;;;;;;;4.55;4.03;;;;;;;;;;5031540;22;20029;-65
2023/05/16 09:25:59;;;;;;;4.53;4.13;;;;;;;;;;5059002;28;20182;-67
2023/05/16 09:28:25;;;;;;;4.80;4.30;;;;;;;;;;5060382;28;20033;-65
2023/05/16 09:30:50;;;;;;;5.20;4.70;;;;;;;;;;5060972;28;20118;-65
2023/05/16 09:33:16;;;;;;;4.82;4.25;;;;;;;;;;5059538;28;20032;-67
2023/05/16 09:35:41;;;;;;;5.40;4.10;;;;;;;;;;5059208;28;20517;-66
2023/05/16 09:38:06;;;;;;;5.10;4.23;;;;;;;;;;5059068;28;20510;-66
2023/05/16 09:40:31;;;;;;;5.00;4.20;;;;;;;;;;5059323;28;20675;-64
2023/05/16 09:43:04;;;;;;;5.97;4.43;;;;;;;;;;5072831;22;20057;-68
2023/05/16 09:45:30;;;;;;;4.47;4.00;;;;;;;;;;5061287;28;20287;-65
2023/05/16 09:48:00;;;;;;;5.25;4.55;;;;;;;;;;5044490;28;20037;-67
2023/05/16 09:50:25;;;;;;;;;;;;;;;;;;5061166;28;20379;-71
2023/05/16 09:52:50;;;;;;;5.05;4.18;;;;;;;;;;5062724;28;20291;-62
2023/05/16 09:55:16;;;;;;;4.90;4.40;;;;;;;;;;5060850;28;20047;-67
2023/05/16 09:57:41;;;;;;;5.60;4.07;;;;;;;;;;5060840;28;20490;-72
2023/05/16 10:00:08;;;;;;;5.00;4.50;;;;;;;;;;5062049;28;20628;-71
2023/05/16 10:02:34;;;;;;;4.80;4.05;;;;;;;;;;5062930;28;20812;-72
2023/05/16 10:04:59;;;;;;;5.22;4.15;;;;;;;;;;5044238;28;20035;-71
2023/05/16 10:07:25;;;;;;;5.30;4.50;;;;;;;;;;5051362;28;20037;-71
2023/05/16 10:09:51;;;;;;;5.75;4.50;;;;;;;;;;5063079;28;20118;-71
2023/05/16 10:12:16;;;;;;;5.03;4.10;;;;;;;;;;5063349;28;20071;-72
2023/05/16 10:14:41;;;;;;;4.70;4.13;;;;;;;;;;5044503;28;20028;-68
2023/05/16 10:17:07;;;;;;;5.10;4.43;;;;;;;;;;5061988;28;20055;-71
2023/05/16 10:19:34;;;;;;;4.93;4.43;;;;;;;;;;5050855;28;20435;-71
2023/05/16 10:21:59;;;;;;;5.32;4.20;;;;;;;;;;5051081;28;20052;-69
2023/05/16 10:24:28;;;;;;;5.28;4.50;;;;;;;;;;5068565;28;20044;-72
2023/05/16 10:26:53;;;;;;;5.28;4.30;;;;;;;;;;5068316;28;20079;-71
2023/05/16 10:29:19;;;;;;;4.67;4.10;;;;;;;;;;5049809;28;20475;-72
2023/05/16 10:31:45;;;;;;;4.82;4.32;;;;;;;;;;5050846;28;20332;-68
2023/05/16 10:34:10;;;;;;;4.95;4.20;;;;;;;;;;5068431;28;20051;-70
2023/05/16 10:36:35;;;;;;;5.30;4.40;;;;;;;;;;5050514;28;20103;-71
2023/05/16 10:39:00;;;;;;;5.37;4.23;;;;;;;;;;5033322;28;20359;-64
2023/05/16 10:41:26;;;;;;;6.00;4.93;;;;;;;;;;5061902;28;20131;-64
2023/05/16 10:43:57;;;;;;;4.47;3.97;;;;;;;;;;5065764;28;20286;-69
2023/05/16 10:46:23;;;;;;;5.03;4.25;;;;;;;;;;5049710;28;20037;-68
2023/05/16 10:48:48;;;;;;;5.13;4.45;;;;;;;;;;5067471;28;20537;-71
2023/05/16 10:51:22;;;;;;;5.65;4.60;;;;;;;;;;5050465;28;20056;-73
2023/05/16 10:53:51;;;;;;;4.68;4.20;;;;;;;;;;5067415;28;20101;-65
2023/05/16 10:56:20;;;;;;;5.10;4.20;;;;;;;;;;5049336;28;20052;-71
2023/05/16 10:58:46;;;;;;;4.68;4.22;;;;;;;;;;5049913;28;20025;-68
2023/05/16 11:01:23;;;;;;;4.93;4.07;;;;;;;;;;5049752;28;20515;-66
2023/05/16 11:06:23;;;;;;;5.45;4.28;;;;;;;;;;5069083;28;20043;-71
2023/05/16 11:11:48;;;;;;;5.07;4.57;;;;;;;;;;5067879;28;20064;-72
2023/05/16 11:14:33;;;;;;;5.32;4.00;;;;;;;;;;5068264;28;20052;-71
2023/05/16 11:16:58;;;;;;;4.38;3.97;;;;;;;;;;5067587;28;20102;-70
2023/05/16 11:19:32;;;;;;;5.73;4.27;;;;;;;;;;5067638;28;20490;-71
2023/05/16 11:22:23;;;;;;;5.32;4.32;;;;;;;;;;5067621;28;20098;-69
2023/05/16 11:24:54;;;;;;;4.78;4.13;;;;;;;;;;5054452;28;20037;-67
2023/05/16 11:27:20;;;;;;;5.40;4.40;;;;;;;;;;5055004;28;20533;-70
2023/05/16 11:29:45;;;;;;;5.80;4.40;;;;;;;;;;5049960;28;20592;-69
2023/05/16 11:32:11;;;;;;;4.57;4.03;;;;;;;;;;5048777;28;20047;-68
2023/05/16 11:34:38;;;;;;;5.10;4.60;;;;;;;;;;5049843;28;20283;-68
2023/05/16 11:37:04;;;;;;;4.65;4.15;;;;;;;;;;5067218;28;20036;-71
2023/05/16 11:39:29;;;;;;;4.75;4.13;;;;;;;;;;5067654;28;20052;-71
2023/05/16 11:41:54;;;;;;;4.78;4.32;;;;;;;;;;5048898;28;20425;-71
2023/05/16 11:44:19;;;;;;;5.57;4.60;;;;;;;;;;5061990;28;20129;-69
2023/05/16 11:46:45;;;;;;;4.87;4.33;;;;;;;;;;5032908;28;20051;-67
2023/05/16 11:49:10;;;;;;;5.15;4.38;;;;;;;;;;5011151;28;20310;-70
2023/05/16 11:51:39;;;;;;;4.47;4.05;;;;;;;;;;5041627;28;20065;-64
2023/05/16 11:54:05;;;;;;;4.10;3.70;;;;;;;;;;5046685;28;20644;-73
2023/05/16 11:56:31;;;;;;;4.93;4.43;;;;;;;;;;5028999;28;20122;-71
2023/05/16 11:58:58;;;;;;;5.40;4.38;;;;;;;;;;5047271;28;20383;-65
2023/05/16 12:01:23;;;;;;;4.55;4.03;;;;;;;;;;5063119;28;20064;-69
2023/05/16 12:03:56;;;;;;;5.97;4.13;;;;;;;;;;5067340;28;20511;-72
2023/05/16 12:06:21;;;;;;;4.93;4.30;;;;;;;;;;5066890;28;20309;-68
2023/05/16 12:08:50;;;;;;;4.78;4.22;;;;;;;;;;5066886;28;20043;-70
2023/05/16 12:11:16;;;;;;;5.25;4.43;;;;;;;;;;5028524;28;20035;-71
2023/05/16 12:13:41;;;;;;;5.22;4.35;;;;;;;;;;5058045;28;20032;-67
2023/05/16 12:16:06;;;;;;;4.33;3.93;;;;;;;;;;5066610;28;20036;-69
2023/05/16 12:18:31;;;;;;;5.68;4.57;;;;;;;;;;5066099;28;20275;-72
2023/05/16 12:20:57;;;;;;;5.00;4.28;;;;;;;;;;5048430;28;20079;-71
2023/05/16 12:23:22;;;;;;;5.30;4.40;;;;;;;;;;5048781;28;20498;-68
2023/05/16 12:25:48;;;;;;;5.03;4.23;;;;;;;;;;5048588;28;20493;-69
2023/05/16 12:28:13;;;;;;;5.75;4.65;;;;;;;;;;5066569;28;20282;-70
2023/05/16 12:30:39;;;;;;;4.70;4.20;;;;;;;;;;5048349;28;20040;-66
2023/05/16 12:33:08;;;;;;;4.90;4.40;;;;;;;;;;5066403;28;20028;-71
2023/05/16 12:35:33;;;;;;;4.78;4.22;;;;;;;;;;5065769;28;20029;-70
2023/05/16 12:37:59;;;;;;;5.05;4.45;;;;;;;;;;5065509;28;20489;-68
2023/05/16 12:40:28;;;;;;;4.70;4.22;;;;;;;;;;5031439;28;20477;-74
2023/05/16 12:42:53;;;;;;;4.83;4.17;;;;;;;;;;5047878;28;20079;-73
2023/05/16 12:45:18;;;;;;;4.30;3.83;;;;;;;;;;5066070;28;20012;-67
2023/05/16 12:47:44;;;;;;;4.50;4.05;;;;;;;;;;5065842;28;20511;-71
2023/05/16 12:50:13;;;;;;;4.75;4.03;;;;;;;;;;5065863;28;20013;-66
2023/05/16 12:52:54;;;;;;;5.07;4.57;;;;;;;;;;5065704;28;20013;-72
2023/05/16 12:55:19;;;;;;;4.72;4.15;;;;;;;;;;5028309;28;20128;-71
2023/05/16 12:57:46;;;;;;;4.80;4.30;;;;;;;;;;5015806;28;20111;-63
2023/05/16 13:00:12;;;;;;;5.45;4.50;;;;;;;;;;5052454;28;20108;-72
2023/05/16 13:02:37;;;;;;;5.55;4.32;;;;;;;;;;5048030;28;20111;-69
2023/05/16 13:05:03;;;;;;;4.70;4.20;;;;;;;;;;5052330;28;20051;-71
2023/05/16 13:07:29;;;;;;;5.28;4.47;;;;;;;;;;5048293;28;20279;-70
2023/05/16 13:09:54;;;;;;;4.30;3.90;;;;;;;;;;5065958;28;20393;-71
2023/05/16 13:12:21;;;;;;;5.05;4.40;;;;;;;;;;5047069;28;20036;-70
2023/05/16 13:14:46;;;;;;;4.93;4.15;;;;;;;;;;5047567;28;20028;-71
2023/05/16 13:17:11;;;;;;;4.55;4.07;;;;;;;;;;5066082;28;20039;-70
2023/05/16 13:19:37;;;;;;;5.32;4.38;;;;;;;;;;5064893;28;20040;-70
2023/05/16 13:22:02;;;;;;;4.37;3.83;;;;;;;;;;5047091;28;20050;-70
2023/05/16 13:24:28;;;;;;;4.22;3.80;;;;;;;;;;5064909;28;20040;-71
2023/05/16 13:26:53;;;;;;;5.20;4.70;;;;;;;;;;5047501;28;20058;-73
2023/05/16 13:29:18;;;;;;;4.43;4.03;;;;;;;;;;5065297;28;20024;-70
2023/05/16 13:31:43;;;;;;;4.80;4.30;;;;;;;;;;5065422;28;20036;-70
2023/05/16 13:34:09;;;;;;;4.75;4.25;;;;;;;;;;5046925;28;20331;-68
2023/05/16 13:36:35;;;;;;;4.87;4.40;;;;;;;;;;5065875;28;20516;-72
2023/05/16 13:39:00;;;;;;;4.13;3.72;;;;;;;;;;5046850;28;20804;-75
2023/05/16 13:41:26;;;;;;;4.47;4.07;;;;;;;;;;5047567;28;20053;-65
2023/05/16 13:43:51;;;;;;;4.93;4.43;;;;;;;;;;5046428;28;20044;-65
2023/05/16 13:46:16;;;;;;;4.60;4.20;;;;;;;;;;5047595;28;20044;-72
2023/05/16 13:48:42;;;;;;;4.80;4.20;;;;;;;;;;5048745;28;20032;-64
2023/05/16 13:51:07;;;;;;;4.80;3.85;;;;;;;;;;5068983;28;20063;-71
2023/05/16 13:53:32;;;;;;;4.85;4.13;;;;;;;;;;5051427;28;20056;-64
2023/05/16 13:55:57;;;;;;;4.65;4.03;;;;;;;;;;5051688;28;20029;-66
2023/05/16 13:58:23;;;;;;;4.63;3.90;;;;;;;;;;5051269;28;20391;-69
2023/05/16 14:00:49;;;;;;;4.20;3.80;;;;;;;;;;5051723;28;20056;-72
2023/05/16 14:03:14;;;;;;;4.35;3.92;;;;;;;;;;5051075;28;20040;-66
2023/05/16 14:05:39;;;;;;;4.60;4.10;;;;;;;;;;5036913;28;20413;-72
2023/05/16 14:08:05;;;;;;;4.50;4.10;;;;;;;;;;5063212;28;20305;-71
2023/05/16 14:10:30;;;;;;;4.45;4.05;;;;;;;;;;5014514;28;20370;-69
2023/05/16 14:12:56;;;;;;;4.30;3.85;;;;;;;;;;5044736;28;20401;-65
2023/05/16 14:15:21;;;;;;;4.50;4.10;;;;;;;;;;5030884;28;20640;-66
2023/05/16 14:17:46;;;;;;;4.20;3.75;;;;;;;;;;5054296;28;20439;-69
2023/05/16 14:20:14;;;;;;;4.83;4.23;;;;;;;;;;5068465;28;20036;-69
2023/05/16 14:22:39;;;;;;;4.70;4.20;;;;;;;;;;5050772;28;20395;-71
2023/05/16 14:25:05;;;;;;;5.13;3.90;;;;;;;;;;5050314;28;20033;-70
2023/05/16 14:27:30;;;;;;;4.40;4.00;;;;;;;;;;5049873;28;20048;-71
2023/05/16 14:29:56;;;;;;;4.60;3.90;;;;;;;;;;5049995;28;20490;-71
2023/05/16 14:32:21;;;;;;;4.82;4.10;;;;;;;;;;5069073;28;20290;-71
2023/05/16 14:34:47;;;;;;;4.67;3.93;;;;;;;;;;5050869;28;20037;-64
2023/05/16 14:37:13;;;;;;;4.22;3.80;;;;;;;;;;5068488;28;20735;-68
2023/05/16 14:39:38;;;;;;;4.85;4.07;;;;;;;;;;5050609;28;20035;-69
2023/05/16 14:42:03;;;;;;;4.43;4.03;;;;;;;;;;5067988;28;20048;-73
2023/05/16 14:44:29;;;;;;;4.80;4.30;;;;;;;;;;5068501;28;20056;-71
2023/05/16 14:46:54;;;;;;;4.10;3.70;;;;;;;;;;5068744;28;20521;-72
2023/05/16 14:49:19;;;;;;;4.55;4.03;;;;;;;;;;5051022;28;20037;-70
2023/05/16 14:51:48;;;;;;;4.57;4.17;;;;;;;;;;5037908;28;20040;-66
2023/05/16 14:54:13;;;;;;;4.82;4.10;;;;;;;;;;5061561;28;20439;-71
2023/05/16 14:56:38;;;;;;;4.70;4.07;;;;;;;;;;5037550;28;20020;-70
2023/05/16 14:59:04;;;;;;;4.50;4.10;;;;;;;;;;5067309;28;20084;-72
2023/05/16 15:01:29;;;;;;;4.47;4.07;;;;;;;;;;5026632;28;20311;-68
2023/05/16 15:03:54;;;;;;;4.03;3.63;;;;;;;;;;5046178;28;20044;-68
2023/05/16 15:06:19;;;;;;;4.68;4.05;;;;;;;;;;5031878;28;20362;-69
2023/05/16 15:08:44;;;;;;;4.70;4.20;;;;;;;;;;5066369;28;20033;-72
2023/05/16 15:11:10;;;;;;;4.17;3.77;;;;;;;;;;5031897;28;20439;-73
2023/05/16 15:13:35;;;;;;;7.32;5.10;;;;;;;;;;5029533;28;20310;-68
2023/05/16 15:16:00;;;;;;;9.20;6.00;;;;;;;;;;5064356;28;20094;-63
2023/05/16 15:18:26;;;;;;;11.10;6.70;;;;;;;;;;5075337;22;20494;-63
2023/05/16 15:20:52;;;;;;;12.17;7.00;;;;;;;;;;5021578;28;20029;-60
2023/05/16 15:23:17;;;;;;;13.20;7.45;;;;;;;;;;5025562;28;20052;-66
2023/05/16 15:25:42;;;;;;;15.20;8.60;;;;;;;;;;5026227;28;20022;-64
2023/05/16 15:28:07;;;;;;;12.75;8.18;;;;;;;;;;5025368;28;20037;-63
2023/05/16 15:30:32;;;;;;;12.73;9.10;;;;;;;;;;5025801;28;20528;-63
2023/05/16 15:32:58;;;;;;;18.53;9.53;;;;;;;;;;5022859;28;20570;-63
2023/05/16 15:35:23;;;;;;;16.23;9.30;;;;;;;;;;5027054;28;20414;-67
2023/05/16 15:37:49;;;;;;;13.53;9.53;;;;;;;;;;4992247;28;20280;-63
2023/05/16 15:40:15;;;;;;;16.90;9.63;;;;;;;;;;5026482;28;20334;-63
2023/05/16 15:42:42;;;;;;;20.20;10.15;;;;;;;;;;5027350;28;20435;-65
2023/05/16 15:45:08;;;;;;;13.85;9.38;;;;;;;;;;5022250;28;20446;-63
2023/05/16 15:47:33;;;;;;;15.07;9.75;;;;;;;;;;5015460;28;20085;-62
2023/05/16 15:49:59;;;;;;;13.67;10.03;;;;;;;;;;4998361;28;20022;-61
2023/05/16 15:52:24;;;;;;;15.45;9.50;;;;;;;;;;5024295;28;20805;-62
2023/05/16 15:54:50;;;;;;;17.08;10.05;;;;;;;;;;5006615;28;20022;-62
2023/05/16 15:57:15;;;;;;;18.65;10.80;;;;;;;;;;5006466;28;20897;-66
2023/05/16 15:59:41;;;;;;;14.93;10.75;;;;;;;;;;5023756;28;20112;-71
2023/05/16 16:02:06;;;;;;;21.65;11.75;;;;;;;;;;4984477;28;20471;-60
2023/05/16 16:04:32;;;;;;;21.63;12.27;;;;;;;;;;5023760;28;20029;-63
2023/05/16 16:06:57;;;;;;;20.02;10.95;;;;;;;;;;5023535;28;20715;-67
2023/05/16 16:09:23;;;;;;;19.17;11.88;;;;;;;;;;5023446;28;20242;-64
2023/05/16 16:11:48;;;;;;;15.95;11.27;;;;;;;;;;5022145;28;20048;-66
2023/05/16 16:14:13;;;;;;;23.67;11.73;;;;;;;;;;5006279;28;20030;-65
2023/05/16 16:16:39;;;;;;;18.10;11.38;;;;;;;;;;5024855;28;20045;-64
2023/05/16 16:19:04;;;;;;;17.60;11.18;;;;;;;;;;5023734;28;20058;-66
2023/05/16 16:21:30;;;;;;;16.42;10.75;;;;;;;;;;5023614;28;20072;-64
2023/05/16 16:23:55;;;;;;;16.88;10.13;;;;;;;;;;4987270;28;20128;-62
2023/05/16 16:26:20;;;;;;;16.33;9.77;;;;;;;;;;5015634;28;20040;-67
2023/05/16 16:28:45;;;;;;;15.52;10.40;;;;;;;;;;5021136;28;20306;-66
2023/05/16 16:31:11;;;;;;;15.13;9.55;;;;;;;;;;5023213;28;20041;-65
2023/05/16 16:33:36;;;;;;;15.82;9.75;;;;;;;;;;5018111;28;20120;-68
2023/05/16 16:36:02;;;;;;;14.07;9.20;;;;;;;;;;5004043;28;20049;-65
2023/05/16 16:38:27;;;;;;;12.70;8.75;;;;;;;;;;5004283;28;20312;-66
2023/05/16 16:40:52;;;;;;;16.43;9.10;;;;;;;;;;5023032;28;20048;-69
2023/05/16 16:43:17;;;;;;;14.93;9.47;;;;;;;;;;5023768;28;20299;-65
2023/05/16 16:45:43;;;;;;;14.93;9.00;;;;;;;;;;5010270;28;21236;-61
2023/05/16 16:48:09;;;;;;;13.00;9.20;;;;;;;;;;5023037;28;20399;-63
2023/05/16 16:50:34;;;;;;;18.25;9.30;;;;;;;;;;5008297;28;20088;-66
2023/05/16 16:53:00;;;;;;;15.73;10.10;;;;;;;;;;5020429;28;20042;-66
2023/05/16 16:55:25;;;;;;;14.25;9.63;;;;;;;;;;5017157;28;20663;-64
2023/05/16 16:57:51;;;;;;;17.80;9.77;;;;;;;;;;5022901;28;20045;-62
2023/05/16 17:00:16;;;;;;;16.23;9.03;;;;;;;;;;5004621;28;20787;-63
2023/05/16 17:02:41;;;;;;;16.35;9.15;;;;;;;;;;5011257;28;20618;-60
2023/05/16 17:05:07;;;;;;;16.45;8.98;;;;;;;;;;5033717;28;20047;-62
2023/05/16 17:07:32;;;;;;;17.27;9.48;;;;;;;;;;5026255;28;20033;-66
2023/05/16 17:09:58;;;;;;;16.73;9.87;;;;;;;;;;5020956;28;20037;-63
2023/05/16 17:12:27;;;;;;;16.35;10.45;;;;;;;;;;5023781;28;20834;-61
2023/05/16 17:14:52;;;;;;;17.45;10.40;;;;;;;;;;5005451;28;20036;-64
2023/05/16 17:17:17;;;;;;;15.60;9.77;;;;;;;;;;5022741;28;20430;-61
2023/05/16 17:19:44;;;;;;;14.57;9.73;;;;;;;;;;5023368;28;20532;-64
2023/05/16 17:22:09;;;;;;;13.68;8.82;;;;;;;;;;5021461;28;20072;-60
2023/05/16 17:24:34;;;;;;;14.63;8.43;;;;;;;;;;5023913;28;20053;-62
2023/05/16 17:27:00;;;;;;;15.25;8.63;;;;;;;;;;4999665;28;20284;-66
2023/05/16 17:29:26;;;;;;;12.25;8.27;;;;;;;;;;5027435;28;20137;-66
2023/05/16 17:31:51;;;;;;;15.60;7.93;;;;;;;;;;5011508;28;20045;-60
2023/05/16 17:34:16;;;;;;;12.00;8.03;;;;;;;;;;5027343;28;20052;-64
2023/05/16 17:36:42;;;;;;;13.57;8.32;;;;;;;;;;5026006;28;20280;-66
2023/05/16 17:39:09;;;;;;;11.23;7.53;;;;;;;;;;5026202;28;20037;-65
2023/05/16 17:41:34;;;;;;;10.57;6.82;;;;;;;;;;5009590;28;20053;-60
2023/05/16 17:43:59;;;;;;;11.43;7.80;;;;;;;;;;5023985;28;20797;-64
2023/05/16 17:46:25;;;;;;;13.70;7.90;;;;;;;;;;5026083;28;20482;-63
2023/05/16 17:48:50;;;;;;;11.40;7.85;;;;;;;;;;5025792;28;20849;-62
2023/05/16 17:51:15;;;;;;;12.20;8.20;;;;;;;;;;5025545;28;20037;-64
2023/05/16 17:53:42;;;;;;;11.20;7.50;;;;;;;;;;5026084;28;20502;-63
2023/05/16 17:56:07;;;;;;;12.00;7.60;;;;;;;;;;5026287;28;20057;-65